createdAt,value
2022-12-19T00:00:06.168Z,4.73
2022-12-19T00:02:39.247Z,6.83
2022-12-19T00:05:07.547Z,3.97
2022-12-19T00:07:34.291Z,7.07
2022-12-19T00:10:01.544Z,5.73
2022-12-19T00:12:29.692Z,6.07
2022-12-19T00:14:56.443Z,7.00
2022-12-19T00:17:25.406Z,6.67
2022-12-19T00:19:52.199Z,6.80
2022-12-19T00:22:18.951Z,5.37
2022-12-19T00:24:45.919Z,5.33
2022-12-19T00:27:12.630Z,5.50
2022-12-19T00:29:40.784Z,4.20
2022-12-19T00:32:07.564Z,5.80
2022-12-19T00:34:35.500Z,6.20
2022-12-19T00:37:02.216Z,6.30
2022-12-19T00:39:29.065Z,6.67
2022-12-19T00:41:55.887Z,6.07
2022-12-19T00:44:22.828Z,5.23
2022-12-19T00:46:52.440Z,4.73
2022-12-19T00:49:19.511Z,7.23
2022-12-19T00:51:46.859Z,5.17
2022-12-19T00:54:14.112Z,5.47
2022-12-19T00:56:41.819Z,4.77
2022-12-19T00:59:09.251Z,5.83
2022-12-19T01:01:39.712Z,5.27
2022-12-19T01:04:28.243Z,6.67
2022-12-19T01:07:01.565Z,5.40
2022-12-19T01:09:32.457Z,4.20
2022-12-19T01:11:59.424Z,4.07
2022-12-19T01:14:26.153Z,4.47
2022-12-19T01:16:53.325Z,5.10
2022-12-19T01:19:21.505Z,5.30
2022-12-19T01:21:48.567Z,6.33
2022-12-19T01:24:19.025Z,6.40
2022-12-19T01:26:49.374Z,5.60
2022-12-19T01:29:16.588Z,4.50
2022-12-19T01:31:43.508Z,5.53
2022-12-19T01:34:10.484Z,7.30
2022-12-19T01:36:40.055Z,5.00
2022-12-19T01:39:07.192Z,5.63
2022-12-19T01:41:34.379Z,7.23
2022-12-19T01:44:05.798Z,5.67
2022-12-19T01:46:37.107Z,6.00
2022-12-19T01:49:10.515Z,5.33
2022-12-19T01:51:45.910Z,4.80
2022-12-19T01:54:19.498Z,4.73
2022-12-19T01:56:51.400Z,5.17
2022-12-19T01:59:25.511Z,5.65
2022-12-19T02:01:59.215Z,6.53
2022-12-19T02:04:32.539Z,6.17
2022-12-19T02:07:04.776Z,4.17
2022-12-19T02:09:44.406Z,4.68
2022-12-19T02:12:13.985Z,5.93
2022-12-19T02:14:41.746Z,4.30
2022-12-19T02:17:18.703Z,5.00
2022-12-19T02:20:24.862Z,5.30
2022-12-19T02:23:23.213Z,4.90
2022-12-19T02:26:16.098Z,5.33
2022-12-19T02:29:31.432Z,4.70
2022-12-19T02:32:07.744Z,5.30
2022-12-19T02:34:46.476Z,5.70
2022-12-19T02:37:23.464Z,6.30
2022-12-19T02:40:00.656Z,6.73
2022-12-19T02:42:35.035Z,4.43
2022-12-19T02:45:12.860Z,5.67
2022-12-19T02:47:47.738Z,4.93
2022-12-19T02:50:14.766Z,4.30
2022-12-19T02:52:49.530Z,5.13
2022-12-19T02:55:30.201Z,5.70
2022-12-19T02:58:36.552Z,5.45
2022-12-19T03:01:22.754Z,5.10
2022-12-19T03:04:06.050Z,5.17
2022-12-19T03:06:42.821Z,4.63
2022-12-19T03:09:19.026Z,4.77
2022-12-19T03:11:51.673Z,4.77
2022-12-19T03:14:21.204Z,5.97
2022-12-19T03:16:49.974Z,5.50
2022-12-19T03:19:18.330Z,5.33
2022-12-19T03:21:50.391Z,5.47
2022-12-19T03:24:19.296Z,6.07
2022-12-19T03:26:52.030Z,5.70
2022-12-19T03:29:27.176Z,5.80
2022-12-19T03:31:56.725Z,5.00
2022-12-19T03:34:29.491Z,5.60
2022-12-19T03:37:02.125Z,4.73
2022-12-19T03:39:32.048Z,5.47
2022-12-19T03:42:02.272Z,4.93
2022-12-19T03:44:35.736Z,4.97
2022-12-19T03:47:10.778Z,4.37
2022-12-19T03:49:39.802Z,4.67
2022-12-19T03:52:23.920Z,5.77
2022-12-19T03:55:01.875Z,5.73
2022-12-19T03:57:37.772Z,5.63
2022-12-19T04:00:08.336Z,6.57
2022-12-19T04:02:49.552Z,6.03
2022-12-19T04:05:22.981Z,5.77
2022-12-19T04:07:53.993Z,5.27
2022-12-19T04:10:25.620Z,4.80
2022-12-19T04:13:02.258Z,4.22
2022-12-19T04:15:38.794Z,4.97
2022-12-19T04:18:09.722Z,4.37
2022-12-19T04:20:43.936Z,6.03
2022-12-19T04:23:20.821Z,6.20
2022-12-19T04:25:52.454Z,4.37
2022-12-19T04:28:26.882Z,5.07
2022-12-19T04:30:54.736Z,6.00
2022-12-19T04:33:21.512Z,5.17
2022-12-19T04:36:14.970Z,5.40
2022-12-19T04:38:42.024Z,5.83
2022-12-19T04:41:08.960Z,4.87
2022-12-19T04:43:35.678Z,7.17
2022-12-19T04:46:02.902Z,5.03
2022-12-19T04:48:29.785Z,6.33
2022-12-19T04:50:56.901Z,5.37
2022-12-19T04:53:25.094Z,5.10
2022-12-19T04:56:00.305Z,6.27
2022-12-19T04:58:30.060Z,5.00
2022-12-19T05:01:01.825Z,7.23
2022-12-19T05:03:28.895Z,5.35
2022-12-19T05:06:20.726Z,5.47
2022-12-19T05:08:48.835Z,6.27
2022-12-19T05:11:19.727Z,4.07
2022-12-19T05:13:47.632Z,5.20
2022-12-19T05:16:14.709Z,6.80
2022-12-19T05:18:46.012Z,5.97
2022-12-19T05:21:14.069Z,6.00
2022-12-19T05:23:41.701Z,6.00
2022-12-19T05:26:11.756Z,4.77
2022-12-19T05:28:39.164Z,5.10
2022-12-19T05:31:10.317Z,5.10
2022-12-19T05:33:38.292Z,5.80
2022-12-19T05:36:06.453Z,6.57
2022-12-19T05:38:33.412Z,6.40
2022-12-19T05:41:00.385Z,6.07
2022-12-19T05:43:28.727Z,6.40
2022-12-19T05:45:55.664Z,5.50
2022-12-19T05:48:22.434Z,6.27
2022-12-19T05:50:50.529Z,5.20
2022-12-19T05:53:21.928Z,6.83
2022-12-19T05:55:53.376Z,5.40
2022-12-19T05:58:20.390Z,5.40
2022-12-19T06:01:17.735Z,6.38
2022-12-19T06:03:45.555Z,6.53
2022-12-19T06:06:14.955Z,6.73
2022-12-19T06:08:42.213Z,6.87
2022-12-19T06:11:11.116Z,6.93
2022-12-19T06:13:38.948Z,7.60
2022-12-19T06:16:10.836Z,13.20
2022-12-19T06:21:31.180Z,6.93
2022-12-19T06:23:57.913Z,6.43
2022-12-19T06:26:25.208Z,5.93
2022-12-19T06:28:54.947Z,4.53
2022-12-19T06:31:24.746Z,8.33
2022-12-19T06:33:55.055Z,5.70
2022-12-19T06:36:24.207Z,5.40
2022-12-19T06:38:51.942Z,6.20
2022-12-19T06:41:20.114Z,7.07
2022-12-19T06:43:51.898Z,6.70
2022-12-19T06:46:20.322Z,6.50
2022-12-19T06:48:47.723Z,7.20
2022-12-19T06:51:15.977Z,7.30
2022-12-19T06:53:42.829Z,5.37
2022-12-19T06:56:11.640Z,5.70
2022-12-19T06:58:38.694Z,5.77
2022-12-19T07:01:06.594Z,7.07
2022-12-19T07:03:40.796Z,5.30
2022-12-19T07:06:08.459Z,5.77
2022-12-19T07:08:36.613Z,5.77
2022-12-19T07:11:03.705Z,6.37
2022-12-19T07:13:30.653Z,5.70
2022-12-19T07:16:02.322Z,6.93
2022-12-19T07:21:25.535Z,5.63
2022-12-19T07:23:53.690Z,6.13
2022-12-19T07:26:20.594Z,5.70
2022-12-19T07:28:47.515Z,6.10
2022-12-19T07:31:14.319Z,7.43
2022-12-19T07:33:41.114Z,7.63
2022-12-19T07:36:08.215Z,6.00
2022-12-19T07:38:36.435Z,4.87
2022-12-19T07:41:04.841Z,6.87
2022-12-19T07:43:31.546Z,5.77
2022-12-19T07:45:58.558Z,5.40
2022-12-19T07:48:25.737Z,6.70
2022-12-19T07:50:52.509Z,5.17
2022-12-19T07:53:19.543Z,5.13
2022-12-19T07:55:50.402Z,5.97
2022-12-19T07:58:18.907Z,5.40
2022-12-19T08:01:11.345Z,5.47
2022-12-19T08:03:38.679Z,6.63
2022-12-19T08:06:07.265Z,5.83
2022-12-19T08:08:34.961Z,5.13
2022-12-19T08:11:09.968Z,7.03
2022-12-19T08:13:44.666Z,6.47
2022-12-19T08:16:13.353Z,5.70
2022-12-19T08:18:40.158Z,6.40
2022-12-19T08:21:11.697Z,5.50
2022-12-19T08:23:38.470Z,7.27
2022-12-19T08:26:07.953Z,5.93
2022-12-19T08:28:36.367Z,5.30
2022-12-19T08:31:10.022Z,5.88
2022-12-19T08:33:37.504Z,6.17
2022-12-19T08:36:05.485Z,6.83
2022-12-19T08:38:32.407Z,6.37
2022-12-19T08:40:59.613Z,6.67
2022-12-19T08:43:27.056Z,6.27
2022-12-19T08:45:54.661Z,5.37
2022-12-19T08:48:23.150Z,5.13
2022-12-19T08:50:52.095Z,6.30
2022-12-19T08:53:25.799Z,6.22
2022-12-19T08:55:54.744Z,5.63
2022-12-19T08:58:21.504Z,4.63
2022-12-19T09:01:18.221Z,6.25
2022-12-19T09:04:23.445Z,6.07
2022-12-19T09:06:34.169Z,4.90
2022-12-19T09:09:01.376Z,5.23
2022-12-19T09:11:28.227Z,6.13
2022-12-19T09:13:56.769Z,5.50
2022-12-19T09:16:26.531Z,6.50
2022-12-19T09:18:57.132Z,5.78
2022-12-19T09:21:27.606Z,7.03
2022-12-19T09:24:01.891Z,12.03
2022-12-19T09:26:32.930Z,11.63
2022-12-19T09:29:01.054Z,8.43
2022-12-19T09:31:29.167Z,8.20
2022-12-19T09:33:57.305Z,5.57
2022-12-19T09:36:25.326Z,7.15
2022-12-19T09:38:55.071Z,6.63
2022-12-19T09:41:53.583Z,6.40
2022-12-19T09:44:38.964Z,7.73
2022-12-19T09:47:13.496Z,6.50
2022-12-19T09:49:44.993Z,6.93
2022-12-19T09:52:17.123Z,6.90
2022-12-19T09:54:49.896Z,5.93
2022-12-19T09:57:23.565Z,7.10
2022-12-19T09:59:57.175Z,5.38
2022-12-19T10:02:37.710Z,6.50
2022-12-19T10:05:32.976Z,7.07
2022-12-19T10:08:17.788Z,6.33
2022-12-19T10:12:35.502Z,7.72
2022-12-19T10:14:22.452Z,7.88
2022-12-19T10:17:24.241Z,6.55
2022-12-19T10:20:17.895Z,7.85
2022-12-19T10:22:59.279Z,5.73
2022-12-19T10:25:39.965Z,5.72
2022-12-19T10:28:29.931Z,5.63
2022-12-19T10:31:19.080Z,6.30
2022-12-19T10:33:57.934Z,6.45
2022-12-19T10:36:49.164Z,6.47
2022-12-19T10:39:29.984Z,4.85
2022-12-19T10:42:08.714Z,4.38
2022-12-19T10:44:39.924Z,4.88
2022-12-19T10:47:16.668Z,3.83
2022-12-19T10:49:43.742Z,4.57
2022-12-19T10:52:13.455Z,4.88
2022-12-19T10:54:42.712Z,5.90
2022-12-19T10:57:24.806Z,4.93
2022-12-19T10:59:57.284Z,5.22
2022-12-19T11:02:40.946Z,3.20
2022-12-19T11:05:25.087Z,3.10
2022-12-19T11:08:15.388Z,4.78
2022-12-19T11:11:27.177Z,5.15
2022-12-19T11:18:11.644Z,3.60
2022-12-19T11:23:58.945Z,4.00
2022-12-19T11:29:18.197Z,5.40
2022-12-19T11:29:36.671Z,3.67
2022-12-19T11:29:37.053Z,3.90
2022-12-19T11:29:46.979Z,4.70
2022-12-19T11:34:04.960Z,5.35
2022-12-19T11:36:41.355Z,4.45
2022-12-19T11:39:18.573Z,5.45
2022-12-19T11:42:02.859Z,4.97
2022-12-19T11:44:37.483Z,6.20
2022-12-19T11:47:17.833Z,4.13
2022-12-19T11:49:51.021Z,3.75
2022-12-19T11:53:03.338Z,4.72
2022-12-19T11:55:33.409Z,4.45
2022-12-19T11:58:01.726Z,5.03
2022-12-19T12:00:30.271Z,5.47
2022-12-19T12:03:28.371Z,4.32
2022-12-19T12:05:55.211Z,5.28
2022-12-19T12:11:57.695Z,5.55
2022-12-19T12:19:39.306Z,4.45
2022-12-19T12:25:22.442Z,4.22
2022-12-19T12:30:49.319Z,3.83
2022-12-19T12:31:30.555Z,3.45
2022-12-19T12:31:49.213Z,5.63
2022-12-19T12:32:05.784Z,4.22
2022-12-19T12:32:06.046Z,3.80
2022-12-19T12:35:52.363Z,3.75
2022-12-19T12:39:25.320Z,3.78
2022-12-19T12:42:11.053Z,5.07
2022-12-19T12:44:45.828Z,3.85
2022-12-19T12:47:20.493Z,4.68
2022-12-19T12:49:51.582Z,3.78
2022-12-19T12:52:27.466Z,4.32
2022-12-19T12:54:55.981Z,3.97
2022-12-19T12:57:36.419Z,4.57
2022-12-19T13:00:24.499Z,4.97
2022-12-19T13:03:03.408Z,3.72
2022-12-19T13:05:40.046Z,4.13
2022-12-19T13:08:34.513Z,4.07
2022-12-19T13:11:05.896Z,5.00
2022-12-19T13:13:53.660Z,4.87
2022-12-19T13:16:50.610Z,5.40
2022-12-19T13:19:27.911Z,4.95
2022-12-19T13:22:18.416Z,4.88
2022-12-19T13:24:50.401Z,5.00
2022-12-19T13:27:39.616Z,5.53
2022-12-19T13:30:19.161Z,4.38
2022-12-19T13:33:09.672Z,5.30
2022-12-19T13:38:05.392Z,5.22
2022-12-19T13:40:00.760Z,5.53
2022-12-19T13:41:29.227Z,4.07
2022-12-19T13:43:59.838Z,5.53
2022-12-19T13:46:40.863Z,4.45
2022-12-19T13:49:17.222Z,5.60
2022-12-19T13:51:52.224Z,5.47
2022-12-19T13:54:24.154Z,4.70
2022-12-19T13:56:52.950Z,6.10
2022-12-19T13:59:23.484Z,6.43
2022-12-19T14:01:52.651Z,6.70
2022-12-19T14:04:28.703Z,6.40
2022-12-19T14:07:01.710Z,6.38
2022-12-19T14:11:28.592Z,6.53
2022-12-19T14:14:00.861Z,6.43
2022-12-19T14:15:30.998Z,6.10
2022-12-19T14:18:41.691Z,7.03
2022-12-19T14:22:04.748Z,6.00
2022-12-19T14:23:43.600Z,7.32
2022-12-19T14:28:18.526Z,7.18
2022-12-19T14:29:12.134Z,7.60
2022-12-19T14:31:58.690Z,7.05
2022-12-19T14:36:06.105Z,6.63
2022-12-19T14:38:44.803Z,7.47
2022-12-19T14:40:24.740Z,5.32
2022-12-19T14:52:34.728Z,7.88
2022-12-19T14:53:36.595Z,6.65
2022-12-19T14:54:22.846Z,7.05
2022-12-19T14:58:08.004Z,7.18
2022-12-19T15:01:08.471Z,7.03
2022-12-19T15:03:25.124Z,7.63
2022-12-19T15:06:02.224Z,7.82
2022-12-19T15:10:57.550Z,6.50
2022-12-19T15:11:55.542Z,7.78
2022-12-19T15:14:53.083Z,7.22
2022-12-19T15:17:52.723Z,8.27
2022-12-19T15:20:20.173Z,8.30
2022-12-19T15:22:47.599Z,8.25
2022-12-19T15:25:36.126Z,6.88
2022-12-19T15:28:13.449Z,7.28
2022-12-19T15:30:46.138Z,7.28
2022-12-19T15:33:14.898Z,6.65
2022-12-19T15:35:41.725Z,8.50
2022-12-19T15:38:09.436Z,7.07
2022-12-19T15:40:37.507Z,8.57
2022-12-19T15:43:04.925Z,8.13
2022-12-19T15:45:33.055Z,7.50
2022-12-19T15:48:26.798Z,11.00
2022-12-19T15:50:53.828Z,7.18
2022-12-19T15:53:38.342Z,10.65
2022-12-19T15:56:24.833Z,9.10
2022-12-19T15:58:54.354Z,7.90
2022-12-19T16:01:21.565Z,9.52
2022-12-19T16:03:50.909Z,8.18
2022-12-19T16:06:18.246Z,8.23
2022-12-19T16:08:45.407Z,8.27
2022-12-19T16:11:19.523Z,8.45
2022-12-19T16:13:54.229Z,8.50
2022-12-19T16:16:21.551Z,8.85
2022-12-19T16:18:49.982Z,8.55
2022-12-19T16:21:20.833Z,9.05
2022-12-19T16:23:48.699Z,8.60
2022-12-19T16:26:31.163Z,6.80
2022-12-19T16:28:58.841Z,8.93
2022-12-19T16:31:27.877Z,8.93
2022-12-19T16:33:56.254Z,9.70
2022-12-19T16:36:23.104Z,10.82
2022-12-19T16:38:50.002Z,9.95
2022-12-19T16:41:21.927Z,9.90
2022-12-19T16:43:49.537Z,8.20
2022-12-19T16:46:19.115Z,9.27
2022-12-19T16:48:46.854Z,9.05
2022-12-19T16:51:20.867Z,9.90
2022-12-19T16:53:48.942Z,8.05
2022-12-19T16:56:24.501Z,10.55
2022-12-19T16:58:52.891Z,9.25
2022-12-19T17:01:20.689Z,8.55
2022-12-19T17:03:47.905Z,9.80
2022-12-19T17:06:18.431Z,9.82
2022-12-19T17:08:45.791Z,8.82
2022-12-19T17:11:19.687Z,8.98
2022-12-19T17:13:50.376Z,8.40
2022-12-19T17:16:17.760Z,8.45
2022-12-19T17:18:46.958Z,7.82
2022-12-19T17:21:19.619Z,8.45
2022-12-19T17:23:46.752Z,7.65
2022-12-19T17:26:17.876Z,8.82
2022-12-19T17:28:45.814Z,8.35
2022-12-19T17:31:22.217Z,8.73
2022-12-19T17:33:50.089Z,8.43
2022-12-19T17:36:23.071Z,8.13
2022-12-19T17:38:51.730Z,7.93
2022-12-19T17:41:18.525Z,9.05
2022-12-19T17:43:45.397Z,8.13
2022-12-19T17:46:18.467Z,9.25
2022-12-19T17:48:48.256Z,9.00
2022-12-19T17:51:16.130Z,8.00
2022-12-19T17:53:45.377Z,8.32
2022-12-19T17:56:14.940Z,8.27
2022-12-19T17:58:42.071Z,7.35
2022-12-19T18:01:18.960Z,6.65
2022-12-19T18:03:47.052Z,6.80
2022-12-19T18:06:15.007Z,7.25
2022-12-19T18:08:44.332Z,6.32
2022-12-19T18:11:19.526Z,7.25
2022-12-19T18:13:46.718Z,6.80
2022-12-19T18:16:17.937Z,6.72
2022-12-19T18:18:46.130Z,6.43
2022-12-19T18:21:38.329Z,6.15
2022-12-19T18:24:10.657Z,6.30
2022-12-19T18:26:38.243Z,7.10
2022-12-19T18:29:05.195Z,6.53
2022-12-19T18:31:32.061Z,6.43
2022-12-19T18:34:05.355Z,6.20
2022-12-19T18:36:39.893Z,6.00
2022-12-19T18:39:19.780Z,5.68
2022-12-19T18:41:47.009Z,6.45
2022-12-19T18:44:14.242Z,6.30
2022-12-19T18:46:41.311Z,7.05
2022-12-19T18:49:13.372Z,7.50
2022-12-19T18:51:41.281Z,7.40
2022-12-19T18:54:15.367Z,6.97
2022-12-19T18:56:42.663Z,6.88
2022-12-19T18:59:09.827Z,6.60
2022-12-19T19:01:41.475Z,6.93
2022-12-19T19:04:08.699Z,6.97
2022-12-19T19:06:38.054Z,7.40
2022-12-19T19:09:14.509Z,6.95
2022-12-19T19:11:52.009Z,7.55
2022-12-19T19:14:19.022Z,6.82
2022-12-19T19:16:46.159Z,7.00
2022-12-19T19:19:17.932Z,6.82
2022-12-19T19:21:45.304Z,6.68
2022-12-19T19:24:17.705Z,7.38
2022-12-19T19:26:44.680Z,7.07
2022-12-19T19:29:11.611Z,7.40
2022-12-19T19:31:44.161Z,7.35
2022-12-19T19:34:16.620Z,6.65
2022-12-19T19:36:48.361Z,7.68
2022-12-19T19:39:17.521Z,5.97
2022-12-19T19:41:44.270Z,5.93
2022-12-19T19:44:11.464Z,5.90
2022-12-19T19:46:38.533Z,6.55
2022-12-19T19:49:05.677Z,6.03
2022-12-19T19:51:32.724Z,7.72
2022-12-19T19:53:59.705Z,7.00
2022-12-19T19:56:27.808Z,5.53
2022-12-19T19:58:54.916Z,6.55
2022-12-19T20:01:22.021Z,6.85
2022-12-19T20:03:49.361Z,6.78
2022-12-19T20:06:16.502Z,5.93
2022-12-19T20:08:43.381Z,7.05
2022-12-19T20:11:10.514Z,5.88
2022-12-19T20:13:39.075Z,6.30
2022-12-19T20:16:08.468Z,6.72
2022-12-19T20:18:37.153Z,5.78
2022-12-19T20:21:12.975Z,6.72
2022-12-19T20:23:42.013Z,6.22
2022-12-19T20:26:10.957Z,5.85
2022-12-19T20:28:47.421Z,6.38
2022-12-19T20:31:16.057Z,5.82
2022-12-19T20:33:43.073Z,6.10
2022-12-19T20:36:12.001Z,6.88
2022-12-19T20:38:39.559Z,6.22
2022-12-19T20:41:07.113Z,5.95
2022-12-19T20:43:34.322Z,6.32
2022-12-19T20:46:05.205Z,6.45
2022-12-19T20:48:32.534Z,6.50
2022-12-19T20:51:01.917Z,5.65
2022-12-19T20:53:28.683Z,6.72
2022-12-19T20:55:59.089Z,6.75
2022-12-19T20:58:32.502Z,6.22
2022-12-19T21:01:07.347Z,6.35
2022-12-19T21:03:36.176Z,6.43
2022-12-19T21:06:04.151Z,5.32
2022-12-19T21:08:32.525Z,6.15
2022-12-19T21:11:00.844Z,5.28
2022-12-19T21:13:28.063Z,5.70
2022-12-19T21:15:56.232Z,6.25
2022-12-19T21:18:25.608Z,5.38
2022-12-19T21:20:53.714Z,6.05
2022-12-19T21:23:20.965Z,6.60
2022-12-19T21:25:48.633Z,5.72
2022-12-19T21:28:15.719Z,5.63
2022-12-19T21:30:43.021Z,5.68
2022-12-19T21:33:10.361Z,5.57
2022-12-19T21:35:39.060Z,6.03
2022-12-19T21:38:06.245Z,5.50
2022-12-19T21:40:36.231Z,6.07
2022-12-19T21:43:09.761Z,5.50
2022-12-19T21:45:38.393Z,5.80
2022-12-19T21:48:05.830Z,5.20
2022-12-19T21:50:32.874Z,4.97
2022-12-19T21:53:01.546Z,6.10
2022-12-19T21:55:28.418Z,5.15
2022-12-19T21:57:55.408Z,5.53
2022-12-19T22:00:22.345Z,5.45
2022-12-19T22:03:12.581Z,5.28
2022-12-19T22:05:39.047Z,5.32
2022-12-19T22:08:10.593Z,4.93
2022-12-19T22:10:39.040Z,5.27
2022-12-19T22:13:05.853Z,5.35
2022-12-19T22:15:34.725Z,5.43
2022-12-19T22:18:01.789Z,5.38
2022-12-19T22:20:28.639Z,4.78
2022-12-19T22:22:55.663Z,5.50
2022-12-19T22:25:23.809Z,5.60
2022-12-19T22:27:50.693Z,5.68
2022-12-19T22:30:17.558Z,5.13
2022-12-19T22:32:44.697Z,5.43
2022-12-19T22:35:11.540Z,4.40
2022-12-19T22:37:38.458Z,4.97
2022-12-19T22:40:07.658Z,4.97
2022-12-19T22:42:35.888Z,5.70
2022-12-19T22:45:02.760Z,5.47
2022-12-19T22:47:29.685Z,5.75
2022-12-19T22:49:56.631Z,5.35
2022-12-19T22:52:23.485Z,5.18
2022-12-19T22:54:50.576Z,5.50
2022-12-19T22:57:17.422Z,4.55
2022-12-19T22:59:45.750Z,5.13
2022-12-19T23:02:12.848Z,5.78
2022-12-19T23:04:39.784Z,5.65
2022-12-19T23:07:06.927Z,5.50
2022-12-19T23:09:33.704Z,4.65
2022-12-19T23:12:00.588Z,5.05
2022-12-19T23:14:27.480Z,5.03
2022-12-19T23:16:55.882Z,5.30
2022-12-19T23:19:22.918Z,4.85
2022-12-19T23:21:50.079Z,4.60
2022-12-19T23:24:17.460Z,4.93
2022-12-19T23:26:44.914Z,4.93
2022-12-19T23:29:15.290Z,5.35
2022-12-19T23:31:45.650Z,4.72
2022-12-19T23:34:14.515Z,4.80
2022-12-19T23:39:28.867Z,5.00
2022-12-19T23:41:55.807Z,5.22
2022-12-19T23:44:22.899Z,5.18
2022-12-19T23:46:49.724Z,5.47
2022-12-19T23:49:17.953Z,5.13
2022-12-19T23:51:45.004Z,4.93
2022-12-19T23:54:11.764Z,4.45
2022-12-19T23:56:39.324Z,5.45
2022-12-19T23:59:06.383Z,5.07
